createdAt,value
2017-08-14T00:00:07.840Z,2.33
2017-08-14T00:02:34.480Z,2.17
2017-08-14T00:05:01.800Z,1.87
2017-08-14T00:07:28.442Z,2.17
2017-08-14T00:09:55.100Z,2.73
2017-08-14T00:12:21.759Z,2.70
2017-08-14T00:14:48.378Z,2.30
2017-08-14T00:17:15.152Z,7.03
2017-08-14T00:19:41.770Z,2.40
2017-08-14T00:22:08.394Z,3.40
2017-08-14T00:24:35.050Z,2.33
2017-08-14T00:27:01.681Z,2.63
2017-08-14T00:29:28.340Z,2.50
2017-08-14T00:31:54.968Z,2.97
2017-08-14T00:34:21.602Z,4.23
2017-08-14T00:36:48.258Z,2.23
2017-08-14T00:39:14.891Z,3.93
2017-08-14T00:41:41.634Z,3.83
2017-08-14T00:44:08.257Z,6.50
2017-08-14T00:46:34.882Z,4.50
2017-08-14T00:49:02.125Z,3.93
2017-08-14T00:51:28.755Z,3.53
2017-08-14T00:53:55.461Z,2.63
2017-08-14T00:56:22.178Z,2.57
2017-08-14T00:58:48.813Z,2.37
2017-08-14T01:01:15.490Z,2.43
2017-08-14T01:03:42.194Z,2.43
2017-08-14T01:06:08.854Z,2.50
2017-08-14T01:08:35.493Z,4.83
2017-08-14T01:11:02.165Z,2.03
2017-08-14T01:13:28.831Z,1.93
2017-08-14T01:15:55.475Z,3.53
2017-08-14T01:18:22.099Z,2.50
2017-08-14T01:20:48.756Z,3.60
2017-08-14T01:23:15.431Z,2.07
2017-08-14T01:25:42.106Z,5.20
2017-08-14T01:28:08.735Z,2.97
2017-08-14T01:30:35.415Z,2.67
2017-08-14T01:33:02.134Z,2.20
2017-08-14T01:35:28.766Z,2.50
2017-08-14T01:37:55.386Z,2.43
2017-08-14T01:40:22.069Z,2.20
2017-08-14T01:42:48.703Z,2.33
2017-08-14T01:45:15.339Z,2.47
2017-08-14T01:47:42.030Z,2.63
2017-08-14T01:50:08.675Z,3.23
2017-08-14T01:52:35.309Z,4.40
2017-08-14T01:55:01.988Z,4.00
2017-08-14T01:57:28.689Z,4.03
2017-08-14T01:59:55.325Z,3.87
2017-08-14T02:02:21.979Z,5.00
2017-08-14T02:04:48.654Z,3.30
2017-08-14T02:07:15.292Z,5.80
2017-08-14T02:09:42.007Z,5.30
2017-08-14T02:12:08.642Z,3.93
2017-08-14T02:14:35.271Z,2.87
2017-08-14T02:17:01.952Z,2.70
2017-08-14T02:19:28.595Z,2.43
2017-08-14T02:21:55.232Z,2.70
2017-08-14T02:24:21.927Z,3.80
2017-08-14T02:26:48.567Z,2.50
2017-08-14T02:29:15.203Z,2.70
2017-08-14T02:31:41.879Z,2.30
2017-08-14T02:34:08.537Z,3.00
2017-08-14T02:36:35.208Z,2.43
2017-08-14T02:39:01.835Z,4.73
2017-08-14T02:41:28.894Z,2.53
2017-08-14T02:43:55.528Z,2.20
2017-08-14T02:46:22.168Z,2.60
2017-08-14T02:48:48.840Z,2.23
2017-08-14T02:51:15.517Z,2.53
2017-08-14T02:53:42.180Z,2.70
2017-08-14T02:56:08.882Z,2.70
2017-08-14T02:58:35.523Z,3.33
2017-08-14T03:01:02.189Z,2.93
2017-08-14T03:03:28.834Z,2.53
2017-08-14T03:05:55.538Z,2.93
2017-08-14T03:08:22.168Z,3.30
2017-08-14T03:10:48.814Z,2.90
2017-08-14T03:13:15.498Z,6.07
2017-08-14T03:15:42.131Z,2.83
2017-08-14T03:18:08.872Z,3.23
2017-08-14T03:20:35.516Z,3.10
2017-08-14T03:23:02.205Z,2.70
2017-08-14T03:25:28.842Z,4.43
2017-08-14T03:27:55.981Z,3.90
2017-08-14T03:30:22.678Z,6.43
2017-08-14T03:32:49.299Z,5.50
2017-08-14T03:35:15.951Z,3.70
2017-08-14T03:37:42.691Z,3.80
2017-08-14T03:40:09.330Z,3.47
2017-08-14T03:42:35.968Z,7.87
2017-08-14T03:45:02.643Z,4.50
2017-08-14T03:47:30.240Z,4.23
2017-08-14T03:49:56.876Z,3.40
2017-08-14T03:52:23.570Z,4.27
2017-08-14T03:54:50.207Z,4.20
2017-08-14T03:57:16.835Z,4.40
2017-08-14T03:59:43.527Z,4.20
2017-08-14T04:02:10.160Z,4.80
2017-08-14T04:04:36.800Z,6.20
2017-08-14T04:07:03.574Z,5.53
2017-08-14T04:09:30.199Z,5.80
2017-08-14T04:11:56.835Z,4.80
2017-08-14T04:14:23.516Z,5.70
2017-08-14T04:16:50.231Z,6.07
2017-08-14T04:19:16.902Z,6.07
2017-08-14T04:21:43.546Z,5.50
2017-08-14T04:24:10.183Z,5.87
2017-08-14T04:26:36.850Z,6.83
2017-08-14T04:29:03.529Z,6.57
2017-08-14T04:31:30.163Z,6.90
2017-08-14T04:33:56.843Z,6.23
2017-08-14T04:36:23.505Z,5.80
2017-08-14T04:38:50.128Z,11.37
2017-08-14T04:41:16.780Z,6.23
2017-08-14T04:43:43.555Z,5.30
2017-08-14T04:46:10.232Z,9.03
2017-08-14T04:48:36.875Z,6.67
2017-08-14T04:51:03.504Z,8.63
2017-08-14T04:53:30.163Z,6.07
2017-08-14T04:55:56.793Z,6.33
2017-08-14T04:58:23.473Z,6.47
2017-08-14T05:00:50.108Z,6.37
2017-08-14T05:03:16.772Z,10.73
2017-08-14T05:05:43.456Z,9.60
2017-08-14T05:08:10.163Z,7.30
2017-08-14T05:10:36.796Z,6.50
2017-08-14T05:13:03.440Z,7.10
2017-08-14T05:15:30.356Z,7.13
2017-08-14T05:17:57.067Z,6.17
2017-08-14T05:20:23.741Z,6.57
2017-08-14T05:22:50.425Z,9.33
2017-08-14T05:25:17.070Z,7.13
2017-08-14T05:27:43.722Z,6.03
2017-08-14T05:30:10.553Z,7.13
2017-08-14T05:32:37.284Z,8.10
2017-08-14T05:35:03.928Z,7.60
2017-08-14T05:37:30.599Z,6.80
2017-08-14T05:39:57.270Z,7.43
2017-08-14T05:42:23.936Z,7.03
2017-08-14T05:44:50.614Z,7.10
2017-08-14T05:47:17.251Z,7.60
2017-08-14T05:49:43.926Z,8.73
2017-08-14T05:52:10.592Z,7.00
2017-08-14T05:54:37.389Z,7.20
2017-08-14T05:57:04.068Z,8.43
2017-08-14T05:59:30.723Z,8.07
2017-08-14T06:01:57.423Z,9.30
2017-08-14T06:04:24.110Z,8.10
2017-08-14T06:06:50.803Z,7.17
2017-08-14T06:09:17.463Z,7.23
2017-08-14T06:11:44.144Z,6.80
2017-08-14T06:14:10.825Z,8.20
2017-08-14T06:16:37.451Z,7.00
2017-08-14T06:19:04.078Z,6.60
2017-08-14T06:21:30.775Z,7.30
2017-08-14T06:23:57.415Z,7.10
2017-08-14T06:26:24.056Z,6.70
2017-08-14T06:28:50.719Z,6.30
2017-08-14T06:31:17.399Z,6.70
2017-08-14T06:33:44.050Z,7.30
2017-08-14T06:36:10.755Z,6.83
2017-08-14T06:38:37.411Z,5.93
2017-08-14T06:41:04.070Z,6.63
2017-08-14T06:43:30.756Z,5.93
2017-08-14T06:45:57.399Z,7.00
2017-08-14T06:48:24.070Z,9.03
2017-08-14T06:50:50.791Z,6.23
2017-08-14T06:53:17.457Z,5.57
2017-08-14T06:55:44.112Z,5.83
2017-08-14T06:58:10.804Z,4.93
2017-08-14T07:00:37.447Z,6.20
2017-08-14T07:03:04.183Z,5.50
2017-08-14T07:05:30.864Z,5.80
2017-08-14T07:07:57.649Z,6.33
2017-08-14T07:10:24.339Z,6.37
2017-08-14T07:12:50.981Z,5.90
2017-08-14T07:15:17.615Z,7.07
2017-08-14T07:17:44.299Z,6.20
2017-08-14T07:20:10.965Z,6.40
2017-08-14T07:22:37.665Z,6.47
2017-08-14T07:25:04.294Z,6.53
2017-08-14T07:27:30.923Z,5.20
2017-08-14T07:29:57.612Z,5.30
2017-08-14T07:32:24.262Z,6.00
2017-08-14T07:34:50.915Z,5.33
2017-08-14T07:37:17.610Z,6.30
2017-08-14T07:39:44.255Z,4.43
2017-08-14T07:42:11.400Z,8.13
2017-08-14T07:44:38.074Z,4.80
2017-08-14T07:47:04.744Z,4.50
2017-08-14T07:49:31.388Z,4.83
2017-08-14T07:51:58.792Z,5.20
2017-08-14T07:54:25.436Z,4.70
2017-08-14T07:56:52.084Z,3.83
2017-08-14T07:59:18.765Z,3.70
2017-08-14T08:01:45.475Z,3.90
2017-08-14T08:04:12.117Z,4.33
2017-08-14T08:06:38.809Z,3.50
2017-08-14T08:09:05.446Z,3.73
2017-08-14T08:11:32.129Z,3.63
2017-08-14T08:13:58.770Z,3.83
2017-08-14T08:16:25.455Z,3.00
2017-08-14T08:18:52.129Z,3.10
2017-08-14T08:21:18.836Z,3.50
2017-08-14T08:23:45.507Z,3.20
2017-08-14T08:26:12.169Z,3.30
2017-08-14T08:28:38.861Z,3.63
2017-08-14T08:31:05.546Z,3.43
2017-08-14T08:33:32.224Z,3.00
2017-08-14T08:35:58.968Z,3.43
2017-08-14T08:38:25.634Z,3.17
2017-08-14T08:40:52.299Z,3.77
2017-08-14T08:43:18.926Z,3.17
2017-08-14T08:45:45.592Z,2.80
2017-08-14T08:48:12.251Z,2.93
2017-08-14T08:50:39.038Z,3.97
2017-08-14T08:53:05.696Z,3.37
2017-08-14T08:55:32.399Z,2.67
2017-08-14T08:57:59.041Z,3.53
2017-08-14T09:00:25.683Z,3.83
2017-08-14T09:02:52.361Z,2.93
2017-08-14T09:05:18.992Z,3.27
2017-08-14T09:07:45.632Z,2.57
2017-08-14T09:10:12.318Z,3.63
2017-08-14T09:12:39.025Z,3.00
2017-08-14T09:15:05.664Z,2.73
2017-08-14T09:17:32.304Z,3.93
2017-08-14T09:19:58.971Z,3.00
2017-08-14T09:22:25.678Z,4.10
2017-08-14T09:24:52.385Z,2.80
2017-08-14T09:27:19.019Z,2.70
2017-08-14T09:29:45.691Z,3.47
2017-08-14T09:32:12.379Z,2.63
2017-08-14T09:34:39.033Z,3.53
2017-08-14T09:37:05.678Z,2.90
2017-08-14T09:39:32.372Z,2.80
2017-08-14T09:41:59.005Z,2.77
2017-08-14T09:44:25.643Z,3.77
2017-08-14T09:46:52.321Z,2.90
2017-08-14T09:49:18.961Z,2.20
2017-08-14T09:51:45.696Z,2.30
2017-08-14T09:54:12.450Z,3.50
2017-08-14T09:56:39.147Z,2.50
2017-08-14T09:59:05.782Z,2.43
2017-08-14T10:01:32.416Z,2.73
2017-08-14T10:03:59.078Z,2.87
2017-08-14T10:06:25.719Z,4.57
2017-08-14T10:08:52.368Z,3.17
2017-08-14T10:11:18.982Z,2.20
2017-08-14T10:13:45.670Z,3.00
2017-08-14T10:16:12.287Z,2.60
2017-08-14T10:18:39.032Z,2.60
2017-08-14T10:21:05.688Z,3.13
2017-08-14T10:23:32.306Z,2.60
2017-08-14T10:25:58.944Z,2.30
2017-08-14T10:28:25.614Z,2.37
2017-08-14T10:30:52.378Z,5.90
2017-08-14T10:33:19.129Z,2.10
2017-08-14T10:35:45.822Z,2.63
2017-08-14T10:38:12.464Z,2.93
2017-08-14T10:40:39.135Z,3.03
2017-08-14T10:43:05.805Z,2.63
2017-08-14T10:45:32.513Z,1.97
2017-08-14T10:47:59.151Z,2.33
2017-08-14T10:50:25.794Z,2.57
2017-08-14T10:52:52.473Z,2.73
2017-08-14T10:55:19.107Z,2.30
2017-08-14T10:57:45.750Z,2.40
2017-08-14T11:00:12.442Z,2.33
2017-08-14T11:02:39.076Z,2.03
2017-08-14T11:05:05.793Z,2.33
2017-08-14T11:07:33.377Z,2.50
2017-08-14T11:10:00.015Z,3.47
2017-08-14T11:12:26.683Z,2.37
2017-08-14T11:14:53.315Z,2.53
2017-08-14T11:17:19.995Z,2.07
2017-08-14T11:19:46.636Z,3.03
2017-08-14T11:22:13.315Z,2.80
2017-08-14T11:24:39.943Z,2.20
2017-08-14T11:27:06.628Z,2.30
2017-08-14T11:29:33.414Z,2.70
2017-08-14T11:32:00.054Z,4.37
2017-08-14T11:34:26.738Z,2.33
2017-08-14T11:36:53.385Z,4.13
2017-08-14T11:39:20.001Z,2.50
2017-08-14T11:41:46.661Z,2.70
2017-08-14T11:44:13.326Z,2.00
2017-08-14T11:46:40.097Z,1.97
2017-08-14T11:49:06.723Z,2.10
2017-08-14T11:51:33.378Z,3.37
2017-08-14T11:54:00.038Z,2.10
2017-08-14T11:56:26.661Z,2.80
2017-08-14T11:58:53.344Z,3.30
2017-08-14T12:01:20.026Z,2.90
2017-08-14T12:03:46.643Z,2.30
2017-08-14T12:06:13.326Z,3.40
2017-08-14T12:08:39.977Z,2.63
2017-08-14T12:11:06.620Z,2.73
2017-08-14T12:13:33.288Z,2.73
2017-08-14T12:15:59.931Z,3.07
2017-08-14T12:18:26.594Z,3.27
2017-08-14T12:20:53.219Z,3.10
2017-08-14T12:23:19.898Z,2.93
2017-08-14T12:25:46.609Z,2.80
2017-08-14T12:28:13.244Z,2.67
2017-08-14T12:30:39.862Z,2.63
2017-08-14T12:33:06.544Z,3.60
2017-08-14T12:35:33.175Z,2.30
2017-08-14T12:37:59.798Z,2.40
2017-08-14T12:40:26.540Z,2.83
2017-08-14T12:42:53.216Z,3.37
2017-08-14T12:45:20.203Z,2.47
2017-08-14T12:47:46.830Z,2.93
2017-08-14T12:50:13.511Z,2.70
2017-08-14T12:52:40.140Z,2.40
2017-08-14T12:55:06.882Z,3.43
2017-08-14T12:57:33.550Z,2.93
2017-08-14T13:00:00.202Z,3.03
2017-08-14T13:02:26.899Z,2.60
2017-08-14T13:04:53.574Z,2.33
2017-08-14T13:07:20.208Z,2.77
2017-08-14T13:09:46.835Z,3.27
2017-08-14T13:12:13.550Z,2.47
2017-08-14T13:14:40.185Z,3.10
2017-08-14T13:17:06.836Z,2.60
2017-08-14T13:19:33.529Z,2.40
2017-08-14T13:22:00.243Z,2.80
2017-08-14T13:24:26.900Z,3.23
2017-08-14T13:26:53.593Z,2.93
2017-08-14T13:29:20.274Z,2.23
2017-08-14T13:31:46.929Z,2.33
2017-08-14T13:34:13.632Z,2.80
2017-08-14T13:36:40.270Z,2.70
2017-08-14T13:39:06.907Z,2.50
2017-08-14T13:41:33.591Z,2.43
2017-08-14T13:44:00.280Z,1.93
2017-08-14T13:46:26.972Z,1.90
2017-08-14T13:48:53.608Z,2.17
2017-08-14T13:51:20.259Z,2.70
2017-08-14T13:53:46.928Z,2.20
2017-08-14T13:56:13.613Z,2.80
2017-08-14T13:58:40.310Z,2.13
2017-08-14T14:01:06.941Z,2.10
2017-08-14T14:03:33.587Z,1.90
2017-08-14T14:06:00.275Z,2.37
2017-08-14T14:08:26.906Z,2.00
2017-08-14T14:10:53.631Z,2.10
2017-08-14T14:13:20.276Z,2.30
2017-08-14T14:15:46.917Z,2.20
2017-08-14T14:18:13.588Z,1.93
2017-08-14T14:20:40.278Z,2.20
2017-08-14T14:23:06.934Z,2.30
2017-08-14T14:25:33.612Z,2.40
2017-08-14T14:28:00.297Z,1.93
2017-08-14T14:30:26.938Z,2.13
2017-08-14T14:32:53.585Z,2.00
2017-08-14T14:35:20.368Z,2.10
2017-08-14T14:37:47.039Z,2.40
2017-08-14T14:40:13.684Z,2.00
2017-08-14T14:42:40.363Z,2.23
2017-08-14T14:45:07.001Z,2.10
2017-08-14T14:47:33.762Z,2.20
2017-08-14T14:50:00.386Z,2.10
2017-08-14T14:52:27.038Z,1.83
2017-08-14T14:54:53.726Z,2.07
2017-08-14T14:57:20.415Z,1.80
2017-08-14T14:59:47.099Z,2.10
2017-08-14T15:02:13.771Z,3.33
2017-08-14T15:04:40.444Z,1.97
2017-08-14T15:07:07.164Z,2.30
2017-08-14T15:09:33.831Z,1.87
2017-08-14T15:12:00.515Z,1.90
2017-08-14T15:14:27.196Z,2.10
2017-08-14T15:16:53.832Z,2.07
2017-08-14T15:19:20.505Z,1.80
2017-08-14T15:21:47.148Z,1.70
2017-08-14T15:24:13.861Z,5.77
2017-08-14T15:26:40.504Z,2.07
2017-08-14T15:29:07.187Z,2.17
2017-08-14T15:31:33.871Z,2.20
2017-08-14T15:34:00.524Z,1.93
2017-08-14T15:36:27.341Z,2.30
2017-08-14T15:38:54.081Z,1.63
2017-08-14T15:41:20.821Z,2.10
2017-08-14T15:43:47.562Z,1.80
2017-08-14T15:46:14.240Z,2.40
2017-08-14T15:48:40.938Z,3.03
2017-08-14T15:51:07.580Z,1.83
2017-08-14T15:53:34.329Z,2.20
2017-08-14T15:56:01.007Z,2.13
2017-08-14T15:58:27.639Z,2.00
2017-08-14T16:00:54.347Z,2.23
2017-08-14T16:03:20.990Z,2.50
2017-08-14T16:05:47.623Z,1.90
2017-08-14T16:08:14.302Z,1.97
2017-08-14T16:10:42.257Z,2.10
2017-08-14T16:13:09.118Z,1.90
2017-08-14T16:15:35.761Z,2.13
2017-08-14T16:18:02.460Z,2.30
2017-08-14T16:20:29.098Z,1.90
2017-08-14T16:22:56.157Z,2.40
2017-08-14T16:25:22.835Z,1.90
2017-08-14T16:27:49.475Z,1.60
2017-08-14T16:30:16.103Z,1.97
2017-08-14T16:32:42.880Z,1.80
2017-08-14T16:35:09.507Z,2.00
2017-08-14T16:37:36.205Z,1.50
2017-08-14T16:40:02.835Z,1.80
2017-08-14T16:42:29.487Z,2.57
2017-08-14T16:47:29.365Z,2.00
2017-08-14T16:49:56.042Z,2.07
2017-08-14T16:52:22.731Z,1.90
2017-08-14T16:54:49.612Z,1.80
2017-08-14T16:57:16.276Z,2.20
2017-08-14T16:59:43.000Z,1.87
2017-08-14T17:02:09.707Z,2.30
2017-08-14T17:04:36.467Z,2.00
2017-08-14T17:07:03.190Z,2.10
2017-08-14T17:09:29.926Z,1.73
2017-08-14T17:11:56.586Z,2.23
2017-08-14T17:14:23.261Z,10.47
2017-08-14T17:16:49.944Z,4.20
2017-08-14T17:19:16.698Z,2.60
2017-08-14T17:21:43.843Z,6.20
2017-08-14T17:24:10.521Z,2.53
2017-08-14T17:26:37.216Z,2.13
2017-08-14T17:29:04.053Z,1.70
2017-08-14T17:31:31.316Z,2.17
2017-08-14T17:33:57.968Z,2.33
2017-08-14T17:36:24.696Z,2.07
2017-08-14T17:38:51.342Z,1.97
2017-08-14T17:41:18.040Z,2.40
2017-08-14T17:43:44.715Z,2.30
2017-08-14T17:46:11.378Z,2.50
2017-08-14T17:48:38.099Z,3.70
2017-08-14T17:51:04.858Z,4.00
2017-08-14T17:53:33.164Z,2.33
2017-08-14T17:55:59.842Z,1.80
2017-08-14T17:58:26.487Z,2.63
2017-08-14T18:00:53.190Z,2.30
2017-08-14T18:03:19.851Z,2.50
2017-08-14T18:05:46.531Z,2.73
2017-08-14T18:08:14.100Z,2.33
2017-08-14T18:10:40.751Z,4.00
2017-08-14T18:13:07.430Z,3.07
2017-08-14T18:15:34.180Z,1.90
2017-08-14T18:18:00.909Z,4.03
2017-08-14T18:20:27.636Z,2.87
2017-08-14T18:22:54.393Z,3.10
2017-08-14T18:25:21.442Z,3.23
2017-08-14T18:27:48.314Z,2.27
2017-08-14T18:30:15.044Z,2.23
2017-08-14T18:32:41.680Z,2.83
2017-08-14T18:35:08.323Z,2.60
2017-08-14T18:37:36.171Z,2.73
2017-08-14T18:40:02.926Z,2.90
2017-08-14T18:42:29.593Z,3.20
2017-08-14T18:44:56.230Z,3.13
2017-08-14T18:47:22.924Z,4.23
2017-08-14T18:49:49.594Z,3.17
2017-08-14T18:52:16.233Z,4.13
2017-08-14T18:54:42.884Z,3.70
2017-08-14T18:57:09.583Z,4.30
2017-08-14T18:59:36.219Z,3.33
2017-08-14T19:02:02.953Z,3.17
2017-08-14T19:04:29.748Z,2.43
2017-08-14T19:06:56.388Z,3.07
2017-08-14T19:09:24.223Z,2.97
2017-08-14T19:11:49.790Z,3.77
2017-08-14T19:14:16.553Z,3.30
2017-08-14T19:16:43.191Z,3.50
2017-08-14T19:19:10.219Z,3.80
2017-08-14T19:21:36.894Z,3.53
2017-08-14T19:24:03.561Z,3.00
2017-08-14T19:26:30.255Z,3.80
2017-08-14T19:28:56.899Z,5.43
2017-08-14T19:31:23.634Z,4.83
2017-08-14T19:33:50.390Z,3.30
2017-08-14T19:36:17.088Z,3.40
2017-08-14T19:38:43.745Z,3.43
2017-08-14T19:41:10.411Z,4.00
2017-08-14T19:43:37.159Z,4.07
2017-08-14T19:46:03.899Z,4.53
2017-08-14T19:48:30.584Z,4.47
2017-08-14T19:50:57.301Z,3.60
2017-08-14T19:53:23.940Z,3.80
2017-08-14T19:55:50.578Z,3.97
2017-08-14T19:58:17.267Z,3.77
2017-08-14T20:00:44.215Z,5.13
2017-08-14T20:03:11.012Z,5.17
2017-08-14T20:05:37.817Z,3.90
2017-08-14T20:08:05.000Z,3.33
2017-08-14T20:24:36.364Z,3.87
2017-08-14T20:27:06.588Z,4.63
2017-08-14T20:29:33.377Z,6.10
2017-08-14T20:32:00.353Z,4.57
2017-08-14T20:34:27.117Z,3.80
2017-08-14T20:36:53.995Z,4.27
2017-08-14T20:39:20.791Z,6.70
2017-08-14T20:41:48.361Z,5.00
2017-08-14T20:44:15.125Z,4.17
2017-08-14T20:46:41.926Z,4.73
2017-08-14T20:49:08.968Z,7.83
2017-08-14T20:51:36.235Z,6.50
2017-08-14T20:54:03.183Z,4.33
2017-08-14T20:56:30.025Z,4.53
2017-08-14T20:58:57.037Z,4.10
2017-08-14T21:01:23.812Z,5.73
2017-08-14T21:03:50.636Z,4.60
2017-08-14T21:06:17.612Z,4.60
2017-08-14T21:08:44.336Z,4.30
2017-08-14T21:11:11.183Z,4.20
2017-08-14T21:13:39.184Z,9.63
2017-08-14T21:16:05.944Z,4.63
2017-08-14T21:18:32.697Z,4.07
2017-08-14T21:20:59.386Z,4.60
2017-08-14T21:23:26.068Z,4.40
2017-08-14T21:25:52.819Z,3.43
2017-08-14T21:28:19.622Z,3.77
2017-08-14T21:30:46.307Z,4.10
2017-08-14T21:33:13.065Z,4.33
2017-08-14T21:35:39.761Z,5.10
2017-08-14T21:38:06.559Z,5.30
2017-08-14T21:40:33.327Z,3.53
2017-08-14T21:43:00.067Z,6.20
2017-08-14T21:45:26.912Z,4.20
2017-08-14T21:47:53.675Z,4.33
2017-08-14T21:50:20.365Z,4.13
2017-08-14T21:52:47.015Z,4.33
2017-08-14T21:55:13.792Z,5.30
2017-08-14T21:57:40.537Z,4.27
2017-08-14T22:00:07.638Z,4.50
2017-08-14T22:02:34.333Z,5.90
2017-08-14T22:05:01.064Z,4.57
2017-08-14T22:07:27.767Z,6.70
2017-08-14T22:09:54.580Z,4.90
2017-08-14T22:12:21.409Z,5.60
2017-08-14T22:14:48.175Z,4.47
2017-08-14T22:17:14.967Z,4.07
2017-08-14T22:19:41.724Z,5.17
2017-08-14T22:22:08.466Z,5.17
2017-08-14T22:24:35.331Z,5.00
2017-08-14T22:27:02.059Z,4.93
2017-08-14T22:29:28.759Z,5.27
2017-08-14T22:31:55.518Z,5.40
2017-08-14T22:34:22.309Z,7.20
2017-08-14T22:36:48.971Z,5.23
2017-08-14T22:39:15.731Z,4.97
2017-08-14T22:41:42.444Z,5.23
2017-08-14T22:44:09.091Z,5.80
2017-08-14T22:46:35.851Z,7.10
2017-08-14T22:49:02.552Z,6.80
2017-08-14T22:51:29.251Z,4.70
2017-08-14T22:53:55.904Z,8.47
2017-08-14T22:56:22.647Z,5.10
2017-08-14T22:58:49.335Z,5.20
2017-08-14T23:01:15.978Z,4.90
2017-08-14T23:03:42.708Z,5.40
2017-08-14T23:06:09.733Z,7.23
2017-08-14T23:08:36.383Z,5.27
2017-08-14T23:11:03.087Z,6.17
2017-08-14T23:13:29.808Z,5.57
2017-08-14T23:15:56.516Z,7.50
2017-08-14T23:18:23.225Z,5.57
2017-08-14T23:20:49.922Z,7.53
2017-08-14T23:23:16.579Z,6.80
2017-08-14T23:25:43.255Z,6.27
2017-08-14T23:28:09.936Z,6.33
2017-08-14T23:30:36.635Z,5.90
2017-08-14T23:33:03.344Z,6.47
2017-08-14T23:35:30.022Z,5.97
2017-08-14T23:37:56.831Z,7.83
2017-08-14T23:40:23.530Z,5.60
2017-08-14T23:42:50.278Z,6.77
2017-08-14T23:45:16.983Z,6.03
2017-08-14T23:47:43.693Z,5.40
2017-08-14T23:50:10.388Z,5.10
2017-08-14T23:52:37.187Z,5.80
2017-08-14T23:55:03.883Z,5.20
2017-08-14T23:57:30.672Z,5.43
2017-08-14T23:59:57.404Z,5.87
